Data for 09/24/2014

Time Sea-Level Adjusted Pressure Absolute Pressure Temperature Relative Humidity Dew Point   
(mb) (inHg) (mb) (inHg) (C) (F) (%) (C) (F)
00:05 1020 30.12 850 25.1 15.9 60.5 61 8.5 47.2
00:10 1020 30.12 850 25.1 15.7 60.3 62 8.4 47.2
00:15 1020 30.12 850 25.1 15.7 60.2 61 8.3 47
00:20 1020 30.12 850 25.1 15.8 60.4 61 8.4 47.2
00:25 1020 30.12 850 25.1 15.6 60 62 8.4 47
00:30 1020 30.12 850 25.1 15.6 60 62 8.4 47.1
00:35 1020 30.12 850 25.1 15.6 60.1 62 8.4 47.1
00:40 1020 30.12 850 25.1 15.6 60.1 62 8.5 47.2
00:45 1020 30.12 850 25.1 15.5 59.8 63 8.5 47.3
00:50 1021 30.15 850 25.1 15.3 59.6 63 8.5 47.2
00:55 1020 30.12 850 25.1 15.3 59.5 63 8.3 47
01:00 1020 30.12 850 25.1 15.3 59.6 63 8.3 47
01:05 1020 30.12 850 25.1 15.4 59.7 63 8.5 47.2
01:10 1020 30.12 850 25.1 15.3 59.5 63 8.4 47.1
01:15 1020 30.12 850 25.1 15.3 59.6 63 8.3 47
01:20 1021 30.15 850 25.1 15.4 59.7 62 8.2 46.8
01:25 1020 30.12 850 25.1 15.5 59.8 62 8.3 46.9
01:30 1020 30.12 850 25.1 15.4 59.8 62 8.2 46.8
01:35 1020 30.12 850 25.1 15.4 59.8 62 8.2 46.8
01:40 1020 30.12 850 25.1 15.4 59.7 62 8.1 46.6
01:45 1020 30.12 850 25.1 15.3 59.5 63 8.3 46.9
01:50 1020 30.12 850 25.1 15.1 59.3 62 8 46.5
01:55 1020 30.12 850 25.1 15.1 59.1 63 8.1 46.6
02:00 1020 30.12 850 25.1 14.9 58.9 64 8.2 46.8
02:05 1020 30.12 850 25.1 14.8 58.7 64 8.1 46.6
02:10 1020 30.12 850 25.1 14.8 58.6 64 8 46.5
02:15 1020 30.12 850 25.1 14.8 58.7 63 8 46.4
02:20 1020 30.12 850 25.1 14.9 58.8 63 8 46.4
02:25 1020 30.12 849 25.07 14.9 58.9 63 7.9 46.3
02:30 1020 30.12 849 25.07 15 59 62 7.8 46.1
02:35 1020 30.12 849 25.07 15 59.1 62 7.9 46.2
02:40 1020 30.12 849 25.07 15.1 59.1 61 7.6 45.7
02:45 1020 30.12 849 25.07 15.2 59.3 61 7.8 46
02:50 1020 30.12 849 25.07 15.1 59.2 61 7.8 46
02:55 1020 30.12 849 25.07 15.1 59.2 61 7.7 45.9
03:00 1020 30.12 849 25.07 14.9 58.9 62 7.7 45.9
03:05 1020 30.12 849 25.07 15.1 59.1 60 7.4 45.3
03:10 1020 30.12 849 25.07 15.1 59.2 60 7.6 45.6
03:15 1020 30.12 849 25.07 15 59 60 7.5 45.5
03:20 1020 30.12 849 25.07 14.9 58.8 61 7.5 45.5
03:25 1020 30.12 849 25.07 14.8 58.6 61 7.5 45.4
03:30 1020 30.12 849 25.07 14.7 58.5 61 7.4 45.4
03:35 1020 30.12 849 25.07 14.7 58.4 61 7.4 45.3
03:40 1020 30.12 849 25.07 14.7 58.5 61 7.3 45.1
03:45 1020 30.12 849 25.07 14.8 58.7 60 7.2 45
03:50 1020 30.12 849 25.07 15 58.9 60 7.3 45.1
03:55 1020 30.12 849 25.07 15 58.9 60 7.2 45
04:00 1020 30.12 849 25.07 14.8 58.7 60 7.2 44.9
04:05 1020 30.12 849 25.07 14.8 58.6 59 7 44.7
04:10 1020 30.12 849 25.07 14.9 58.7 60 7.2 44.9
04:15 1020 30.12 849 25.07 14.8 58.6 60 7.1 44.8
04:20 1020 30.12 849 25.07 14.7 58.5 60 7.1 44.7
04:25 1020 30.12 849 25.07 14.6 58.3 61 7.1 44.9
04:30 1020 30.12 849 25.07 14.6 58.2 60 7.1 44.7
04:35 1020 30.12 849 25.07 14.7 58.5 60 7 44.6
04:40 1020 30.12 849 25.07 14.6 58.3 60 7.1 44.8
04:45 1020 30.12 849 25.07 14.5 58.2 61 7.2 44.9
04:50 1020 30.12 849 25.07 14.3 57.7 62 7.1 44.7
04:55 1020 30.12 849 25.07 14.3 57.7 62 7.1 44.7
05:00 1020 30.12 849 25.07 14.3 57.7 61 6.9 44.5
05:05 1020 30.12 849 25.07 14.4 57.9 60 6.9 44.5
05:10 1020 30.12 849 25.07 14.5 58.2 61 7.1 44.7
05:15 1020 30.12 849 25.07 14.5 58.1 61 7.1 44.8
05:20 1020 30.12 849 25.07 14.2 57.6 61 6.8 44.3
05:25 1020 30.12 849 25.07 14.5 58.1 60 6.9 44.5
05:30 1020 30.12 849 25.07 14.6 58.4 59 6.8 44.2
05:35 1020 30.12 849 25.07 14.8 58.6 59 6.8 44.3
05:40 1020 30.12 849 25.07 14.8 58.6 59 6.9 44.5
05:45 1020 30.12 849 25.07 14.8 58.7 58 6.8 44.2
05:50 1020 30.12 849 25.07 15 58.9 58 6.7 44.1
05:55 1020 30.12 849 25.07 15 58.9 58 6.8 44.2
06:00 1020 30.12 849 25.07 14.9 58.9 58 6.8 44.3
06:05 1020 30.12 849 25.07 14.8 58.6 58 6.7 44
06:10 1020 30.12 849 25.07 14.8 58.7 58 6.7 44.1
06:15 1020 30.12 849 25.07 14.8 58.6 58 6.7 44.1
06:20 1020 30.12 849 25.07 14.8 58.6 58 6.7 44.1
06:25 1020 30.12 849 25.07 14.6 58.3 59 6.7 44
06:30 1020 30.12 849 25.07 14.6 58.2 59 6.7 44
06:35 1020 30.12 849 25.07 14.5 58.1 59 6.6 43.9
06:40 1020 30.12 849 25.07 14.6 58.2 59 6.7 44
06:45 1020 30.12 849 25.07 14.7 58.4 58 6.7 44
06:50 1020 30.12 849 25.07 14.7 58.5 59 6.9 44.5
06:55 1020 30.12 849 25.07 14.6 58.3 59 6.8 44.2
07:00 1020 30.12 849 25.07 14.9 58.8 59 6.9 44.5
07:05 1020 30.12 849 25.07 15.1 59.1 58 6.9 44.5
07:10 1020 30.12 849 25.07 15.3 59.5 57 6.9 44.5
07:15 1020 30.12 849 25.07 15.6 60 56 7 44.6
07:20 1020 30.12 849 25.07 15.5 59.9 57 7.1 44.7
07:25 1020 30.12 849 25.07 15.6 60.1 56 7 44.7
07:30 1020 30.12 850 25.1 15.7 60.3 56 7 44.5
07:35 1020 30.12 850 25.1 15.8 60.5 56 7.1 44.7
07:40 1020 30.12 849 25.07 16 60.8 54 6.8 44.3
07:45 1020 30.12 850 25.1 16.6 61.9 53 7 44.6
07:50 1020 30.12 850 25.1 16.6 61.9 54 7.3 45.1
07:55 1020 30.12 850 25.1 16.6 61.8 53 7.2 45
08:00 1020 30.12 850 25.1 16.7 62.1 53 7.2 45
08:05 1020 30.12 850 25.1 16.7 62 56 7.8 46.1
08:10 1021 30.15 850 25.1 17.1 62.8 53 7.6 45.7
08:15 1021 30.15 850 25.1 17.6 63.7 54 8.4 47.1
08:20 1021 30.15 850 25.1 18.2 64.7 51 7.9 46.2
08:25 1021 30.15 850 25.1 18.6 65.4 48 7.4 45.4
08:30 1021 30.15 850 25.1 19.1 66.3 46 7.4 45.3
08:35 1021 30.15 850 25.1 19.3 66.7 46 7.4 45.2
08:40 1021 30.15 850 25.1 19.7 67.4 45 7.6 45.6
08:45 1021 30.15 850 25.1 19.9 67.8 44 7.5 45.5
08:50 1021 30.15 850 25.1 20.6 69 42 7.3 45.2
08:55 1020 30.12 850 25.1 20.9 69.6 41 7.5 45.5
09:00 1021 30.15 850 25.1 21.2 70.1 40 7.4 45.3
09:05 1020 30.12 850 25.1 21.4 70.5 41 7.7 45.8
09:10 1020 30.12 850 25.1 21.8 71.3 40 7.9 46.2
09:15 1020 30.12 850 25.1 22.2 71.9 38 7.3 45.1
09:20 1020 30.12 850 25.1 22.7 72.8 37 7.6 45.6
09:25 1020 30.12 850 25.1 23.5 74.3 35 7.5 45.5
09:30 1020 30.12 850 25.1 23.4 74.1 35 7.2 44.9
09:35 1020 30.12 849 25.07 23.4 74.1 34 6.8 44.2
09:40 1020 30.12 849 25.07 23.6 74.5 33 6.8 44.2
09:45 1020 30.12 849 25.07 23.9 74.9 32 6.3 43.4
09:50 1020 30.12 849 25.07 24.1 75.5 31 6.3 43.3
09:55 1020 30.12 849 25.07 24.5 76.1 30 6.1 43
10:00 1020 30.12 849 25.07 24.7 76.5 29 5.9 42.6
10:05 1020 30.12 849 25.07 25 77.1 28 5.4 41.7
10:10 1020 30.12 849 25.07 25.6 78.1 27 5.5 42
10:15 1020 30.12 849 25.07 26.2 79.1 26 5.4 41.7
10:20 1020 30.12 849 25.07 26.7 80 25 5.3 41.6
10:25 1020 30.12 849 25.07 26.9 80.5 25 5.7 42.3
10:30 1020 30.12 849 25.07 27.1 80.8 25 5.5 41.9
10:35 1020 30.12 849 25.07 27 80.7 26 5.9 42.7
10:40 1020 30.12 849 25.07 27.1 80.8 23 4.2 39.5
10:45 1020 30.12 849 25.07 28 82.3 21 4.2 39.6
10:50 1020 30.12 849 25.07 28.2 82.7 22 4.7 40.4
10:55 1020 30.12 849 25.07 27.6 81.6 26 6.4 43.5
11:00 1020 30.12 849 25.07 26.6 79.9 24 4.4 39.9
11:05 1020 30.12 849 25.07 26.3 79.4 25 5 41.1
11:10 1020 30.12 849 25.07 26.8 80.2 25 5.4 41.7
11:15 1020 30.12 849 25.07 26.6 79.8 23 3.9 39
11:20 1020 30.12 849 25.07 26.5 79.8 22 3.4 38.2
11:25 1020 30.12 849 25.07 27.1 80.8 23 4.7 40.5
11:30 1020 30.12 849 25.07 27.4 81.2 23 4.5 40.1
11:35 1020 30.12 849 25.07 27.8 82.1 21 3.7 38.7
11:40 1020 30.12 849 25.07 28 82.3 20 3.4 38.1
11:45 1020 30.12 849 25.07 27.9 82.1 21 4.2 39.5
11:50 1020 30.12 849 25.07 27.7 81.9 21 3.6 38.5
11:55 1020 30.12 849 25.07 27.4 81.3 21 3.7 38.7
12:00 1020 30.12 849 25.07 27.3 81.1 21 3.4 38.2
12:05 1019 30.09 849 25.07 27.6 81.7 20 2.8 37
12:10 1019 30.09 849 25.07 28.1 82.6 20 3.5 38.3
12:15 1019 30.09 849 25.07 28.2 82.7 18 1.8 35.3
12:20 1019 30.09 848 25.04 29 84.3 18 2.7 36.9
12:25 1019 30.09 848 25.04 29.3 84.8 18 3 37.3
12:30 1019 30.09 848 25.04 28.9 84 17 2.1 35.8
12:35 1019 30.09 848 25.04 29.2 84.5 16 1 33.7
12:40 1019 30.09 848 25.04 29.2 84.6 16 1.5 34.7
12:45 1019 30.09 848 25.04 28.8 83.9 18 2.3 36.2
12:50 1019 30.09 848 25.04 28.6 83.5 18 2 35.6
12:55 1019 30.09 848 25.04 29 84.2 16 0.8 33.4
13:00 1019 30.09 848 25.04 29.4 85 17 1.9 35.5
13:05 1019 30.09 848 25.04 29 84.2 17 1.4 34.6
13:10 1019 30.09 848 25.04 29.4 84.9 17 1.7 35.1
13:15 1019 30.09 848 25.04 29.4 84.8 16 1.6 34.8
13:20 1019 30.09 848 25.04 29.4 85 17 2.5 36.6
13:25 1018 30.06 848 25.04 29.8 85.7 17 2.1 35.8
13:30 1018 30.06 848 25.04 30.2 86.3 15 1.4 34.5
13:35 1018 30.06 848 25.04 30.1 86.1 16 1.7 35.1
13:40 1018 30.06 848 25.04 29.2 84.6 16 0.8 33.4
13:45 1018 30.06 848 25.04 29 84.1 17 1.4 34.6
13:50 1018 30.06 848 25.04 29 84.3 16 1 33.9
13:55 1018 30.06 848 25.04 29.5 85.2 16 1.3 34.3
14:00 1018 30.06 848 25.04 29.9 85.9 16 1.5 34.7
14:05 1018 30.06 847 25.01 29.9 85.8 16 1.3 34.3
14:10 1018 30.06 847 25.01 29.6 85.2 15 0.6 33
14:15 1018 30.06 847 25.01 29.8 85.6 14 0.1 32.2
14:20 1018 30.06 847 25.01 30.5 86.9 15 1 33.8
14:25 1018 30.06 847 25.01 30.9 87.5 15 1.7 35
14:30 1018 30.06 847 25.01 30.5 86.9 15 1.6 35
14:35 1018 30.06 847 25.01 29.7 85.5 16 1.9 35.5
14:40 1018 30.06 847 25.01 30.1 86.2 15 0.8 33.5
14:45 1018 30.06 847 25.01 30.6 87.2 15 1.3 34.4
14:50 1018 30.06 847 25.01 30.6 87 14 0.2 32.4
14:55 1018 30.06 847 25.01 30.6 87.1 14 0.8 33.4
15:00 1018 30.06 847 25.01 30.8 87.4 14 0.7 33.3
15:05 1018 30.06 847 25.01 30.6 87 13 -0.2 31.6
15:10 1018 30.06 847 25.01 30.7 87.2 13 -0.5 31.1
15:15 1018 30.06 847 25.01 31 87.7 12 -1.1 30
15:20 1018 30.06 847 25.01 31.3 88.3 12 -0.9 30.5
15:25 1018 30.06 847 25.01 30.8 87.4 12 -1 30.1
15:30 1018 30.06 847 25.01 30.1 86.2 13 -1.3 29.7
15:35 1018 30.06 847 25.01 30 86 16 1.4 34.5
15:40 1018 30.06 847 25.01 29.7 85.5 15 1.1 33.9
15:45 1018 30.06 847 25.01 29.6 85.3 17 2 35.5
15:50 1018 30.06 847 25.01 29.4 84.8 15 0.5 32.9
15:55 1018 30.06 847 25.01 29.4 85 15 0.5 32.9
16:00 1018 30.06 847 25.01 29.2 84.6 15 0.4 32.6
16:05 1018 30.06 847 25.01 29.1 84.4 17 1.6 34.9
16:10 1018 30.06 847 25.01 29 84.3 16 1 33.7
16:15 1018 30.06 847 25.01 29 84.2 17 1.4 34.5
16:20 1018 30.06 847 25.01 29 84.1 16 0.6 33
16:25 1018 30.06 847 25.01 29 84.2 16 0.9 33.6
16:30 1018 30.06 847 25.01 28.9 84 15 0.1 32.2
16:35 1018 30.06 847 25.01 28.9 84 16 0.7 33.2
16:40 1018 30.06 847 25.01 29 84.2 17 1.4 34.5
16:45 1018 30.06 847 25.01 28.9 84.1 15 0.1 32.1
16:50 1018 30.06 847 25.01 29 84.1 17 1.9 35.5
16:55 1018 30.06 847 25.01 28.8 83.8 17 1.5 34.7
17:00 1018 30.06 847 25.01 28.5 83.3 18 2.1 35.8
17:05 1018 30.06 847 25.01 28.4 83.2 18 1.8 35.2
17:10 1018 30.06 847 25.01 28.5 83.2 18 2.3 36.2
17:15 1018 30.06 847 25.01 28.3 82.9 18 2 35.6
17:20 1018 30.06 847 25.01 28.2 82.8 18 1.9 35.4
17:25 1018 30.06 847 25.01 28.3 82.9 19 2.5 36.5
17:30 1018 30.06 847 25.01 28.2 82.8 19 2.9 37.2
17:35 1018 30.06 847 25.01 27.8 82 20 3.2 37.7
17:40 1018 30.06 847 25.01 27.6 81.6 20 2.8 37
17:45 1018 30.06 847 25.01 27.4 81.3 21 3.5 38.3
17:50 1018 30.06 847 25.01 27 80.6 21 3.2 37.8
17:55 1018 30.06 847 25.01 26.7 80.1 21 2.8 37
18:00 1018 30.06 847 25.01 26.5 79.6 22 3.5 38.3
18:05 1018 30.06 847 25.01 26.2 79.1 23 3.7 38.6
18:10 1018 30.06 847 25.01 25.9 78.7 24 4 39.2
18:15 1018 30.06 847 25.01 25.6 78.1 25 4.3 39.7
18:20 1018 30.06 847 25.01 25.1 77.2 27 5 40.9
18:25 1018 30.06 847 25.01 24.8 76.6 28 5.5 41.8
18:30 1018 30.06 847 25.01 24.2 75.5 29 5.2 41.3
18:35 1018 30.06 847 25.01 23.8 74.8 30 5.2 41.4
18:40 1018 30.06 847 25.01 23.5 74.2 30 5.2 41.3
18:45 1018 30.06 847 25.01 23.2 73.7 31 5.6 42
18:50 1018 30.06 847 25.01 23.2 73.8 31 5.5 41.9
18:55 1018 30.06 847 25.01 23.2 73.7 31 5.5 42
19:00 1018 30.06 847 25.01 23.3 73.9 29 4.4 39.9
19:05 1018 30.06 847 25.01 23.4 74.1 29 4.4 40
19:10 1018 30.06 847 25.01 23.5 74.3 28 4.1 39.4
19:15 1018 30.06 847 25.01 23.6 74.5 30 5.3 41.5
19:20 1018 30.06 847 25.01 24.3 75.8 25 3.5 38.3
19:25 1018 30.06 848 25.04 24.6 76.3 26 4.1 39.3
19:30 1018 30.06 848 25.04 24.1 75.4 27 4.2 39.6
19:35 1018 30.06 848 25.04 23.8 74.9 27 4 39.2
19:40 1018 30.06 848 25.04 23.7 74.6 28 4.1 39.3
19:45 1018 30.06 848 25.04 23.7 74.6 28 4.3 39.7
19:50 1018 30.06 848 25.04 23.3 73.9 31 5.3 41.5
19:55 1018 30.06 848 25.04 22.5 72.4 32 5.1 41.1
20:00 1018 30.06 848 25.04 21.9 71.3 32 4.8 40.6
20:05 1018 30.06 848 25.04 21.5 70.8 33 5 41
20:10 1018 30.06 848 25.04 21.3 70.3 36 5.9 42.6
20:15 1018 30.06 848 25.04 21.6 70.8 31 4 39.1
20:20 1018 30.06 848 25.04 22.4 72.4 31 4.6 40.4
20:25 1018 30.06 848 25.04 22.4 72.3 33 5.4 41.7
20:30 1018 30.06 848 25.04 21.8 71.2 32 4.7 40.4
20:35 1018 30.06 848 25.04 21.8 71.2 32 4.4 40
20:40 1019 30.09 848 25.04 21.8 71.3 32 4.8 40.6
20:45 1019 30.09 848 25.04 22 71.5 31 4.4 39.9
20:50 1019 30.09 848 25.04 21.4 70.5 33 4.5 40
20:55 1019 30.09 848 25.04 21 69.9 37 6.1 43
21:00 1019 30.09 848 25.04 21.1 70 32 4.1 39.4
21:05 1019 30.09 848 25.04 21.1 70 32 4.1 39.4
21:10 1019 30.09 848 25.04 21.2 70.1 32 4 39.1
21:15 1019 30.09 848 25.04 21.2 70.1 33 4.3 39.8
21:20 1019 30.09 848 25.04 20.9 69.5 33 4.2 39.6
21:25 1019 30.09 848 25.04 20.6 69.1 35 4.7 40.5
21:30 1019 30.09 848 25.04 20 68 36 4.5 40.2
21:35 1019 30.09 848 25.04 20 68 35 4.4 39.9
21:40 1019 30.09 848 25.04 20 68.1 35 4.4 39.9
21:45 1019 30.09 848 25.04 20.4 68.7 34 4.2 39.5
21:50 1019 30.09 848 25.04 20.3 68.5 36 5 40.9
21:55 1019 30.09 848 25.04 19.7 67.4 38 4.9 40.9
22:00 1019 30.09 848 25.04 19.5 67.2 38 4.9 40.9
22:05 1019 30.09 848 25.04 19.2 66.6 39 5 41
22:10 1019 30.09 848 25.04 19.4 66.8 37 4.3 39.7
22:15 1019 30.09 848 25.04 19.7 67.5 37 4.6 40.3
22:20 1019 30.09 848 25.04 19.8 67.7 36 4.6 40.4
22:25 1019 30.09 848 25.04 19.8 67.6 39 5.6 42
22:30 1019 30.09 848 25.04 19.4 66.9 38 4.8 40.7
22:35 1019 30.09 848 25.04 19.4 66.8 38 5 41
22:40 1019 30.09 848 25.04 19.4 67 37 4.4 39.9
22:45 1019 30.09 848 25.04 19.9 67.7 37 5.1 41.1
22:50 1019 30.09 848 25.04 19.9 67.8 36 4.6 40.2
22:55 1019 30.09 848 25.04 19.9 67.8 37 4.8 40.6
23:00 1019 30.09 848 25.04 19.8 67.6 37 4.9 40.8
23:05 1019 30.09 848 25.04 19.5 67.1 38 5 40.9
23:10 1019 30.09 848 25.04 19.4 67 38 4.9 40.8
23:15 1019 30.09 848 25.04 19.7 67.4 37 4.6 40.3
23:20 1019 30.09 848 25.04 19.8 67.7 37 4.7 40.5
23:25 1019 30.09 848 25.04 19.4 66.9 37 4.5 40.1
23:30 1019 30.09 848 25.04 19.4 66.9 37 4.4 39.9
23:35 1019 30.09 848 25.04 19.5 67 38 4.9 40.9
23:40 1019 30.09 848 25.04 19.6 67.3 37 4.5 40.1
23:45 1019 30.09 848 25.04 20 67.9 33 3.2 37.7
23:50 1019 30.09 848 25.04 20.7 69.2 35 4.6 40.4
23:55 1019 30.09 848 25.04 19.7 67.4 38 5 41.1
24:00 1019 30.09 848 25.04 19.5 67 35 3.8 38.8